Shannon, North Carolina
Current Conditions -  °F | °C
As of 1:52 AM on Wednesday 26 Nov 2014 (Local Time) from KMEB Reporting Station
Heavy Rain Heavy Rain  
Wind Chill: 51°   Ceiling: 3100
Heat Index: 51°   Visibility: 2mi
Dew Point: 50°   Wind: 13mph
Humidity: 96%   Direction: 360°N
Pressure: 29.89"   Gusts: NA
Location:  34.85°N, 79.14°W
Report Text: KMEB 260652Z AUTO 36011KT 2SM +RA BR FEW004 SCT023 OVC031 11/10 A2989 RMK AO2 SLP120 P0031 T01060100
Loading
Personal Weather Stations






























Interactive Weather Map New forecast layout! Learn more

10-Day Weather Forecast

Advertisements
Track Severe Weather on mobile